createdAt,value
2023-03-20T00:02:23.133Z,5.78
2023-03-20T00:04:50.108Z,5.47
2023-03-20T00:07:16.745Z,5.05
2023-03-20T00:09:43.293Z,6.28
2023-03-20T00:12:24.070Z,5.78
2023-03-20T00:14:50.752Z,5.95
2023-03-20T00:17:21.104Z,7.82
2023-03-20T00:19:48.179Z,10.43
2023-03-20T00:22:14.664Z,9.77
2023-03-20T00:24:41.410Z,9.98
2023-03-20T00:27:14.338Z,10.05
2023-03-20T00:29:41.150Z,9.68
2023-03-20T00:32:15.034Z,10.38
2023-03-20T00:34:41.978Z,9.18
2023-03-20T00:37:11.416Z,8.80
2023-03-20T00:39:37.913Z,10.02
2023-03-20T00:42:11.421Z,11.38
2023-03-20T00:44:45.708Z,13.43
2023-03-20T00:47:18.551Z,17.77
2023-03-20T00:49:49.828Z,16.95
2023-03-20T00:52:19.581Z,18.25
2023-03-20T00:54:46.614Z,17.90
2023-03-20T00:57:30.514Z,18.05
2023-03-20T01:00:02.425Z,20.13
2023-03-20T01:02:31.129Z,19.52
2023-03-20T01:04:58.425Z,19.65
2023-03-20T01:07:24.948Z,20.58
2023-03-20T01:09:52.579Z,22.13
2023-03-20T01:12:19.230Z,21.48
2023-03-20T01:14:57.358Z,21.85
2023-03-20T01:17:26.761Z,21.60
2023-03-20T01:19:53.997Z,22.73
2023-03-20T01:22:20.537Z,25.42
2023-03-20T01:24:47.807Z,24.33
2023-03-20T01:27:18.128Z,26.50
2023-03-20T01:29:45.609Z,29.92
2023-03-20T01:32:18.601Z,31.30
2023-03-20T01:34:45.107Z,33.08
2023-03-20T01:37:23.853Z,32.83
2023-03-20T01:39:50.626Z,31.92
2023-03-20T01:42:18.117Z,32.15
2023-03-20T01:44:45.567Z,31.17
2023-03-20T01:47:19.041Z,28.92
2023-03-20T01:50:28.983Z,28.92
2023-03-20T01:53:05.915Z,25.42
2023-03-20T01:55:33.380Z,21.42
2023-03-20T01:58:08.933Z,21.67
2023-03-20T02:00:36.619Z,21.10
2023-03-20T02:03:07.458Z,21.23
2023-03-20T02:05:35.320Z,18.40
2023-03-20T02:08:32.600Z,17.73
2023-03-20T02:11:01.987Z,16.50
2023-03-20T02:13:31.715Z,16.60
2023-03-20T02:16:12.194Z,16.20
2023-03-20T02:18:45.657Z,16.45
2023-03-20T02:21:45.384Z,14.55
2023-03-20T02:25:24.567Z,14.77
2023-03-20T02:28:39.124Z,14.10
2023-03-20T02:31:42.104Z,14.48
2023-03-20T02:34:45.836Z,14.15
2023-03-20T02:37:47.740Z,12.75
2023-03-20T02:40:47.960Z,13.07
2023-03-20T02:43:43.069Z,13.25
2023-03-20T02:46:35.820Z,12.25
2023-03-20T02:49:33.860Z,11.75
2023-03-20T02:52:28.963Z,12.63
2023-03-20T02:55:35.556Z,13.15
2023-03-20T02:58:26.584Z,12.07
2023-03-20T03:01:16.035Z,12.18
2023-03-20T03:04:02.115Z,13.48
2023-03-20T03:06:32.597Z,13.75
2023-03-20T03:09:09.389Z,14.00
2023-03-20T03:11:43.835Z,14.15
2023-03-20T03:14:29.579Z,15.70
2023-03-20T03:17:01.052Z,15.55
2023-03-20T03:19:30.019Z,16.48
2023-03-20T03:21:56.774Z,15.57
2023-03-20T03:24:41.412Z,15.80
2023-03-20T03:27:42.578Z,15.75
2023-03-20T03:30:21.891Z,14.82
2023-03-20T03:33:20.058Z,16.88
2023-03-20T03:35:48.317Z,16.55
2023-03-20T03:38:54.083Z,17.23
2023-03-20T03:41:39.860Z,15.52
2023-03-20T03:44:16.038Z,16.73
2023-03-20T03:47:11.414Z,16.25
2023-03-20T03:49:46.044Z,16.05
2023-03-20T03:52:22.459Z,14.48
2023-03-20T03:54:56.685Z,15.45
2023-03-20T03:57:37.660Z,17.83
2023-03-20T04:00:07.215Z,17.95
2023-03-20T04:02:35.674Z,17.27
2023-03-20T04:05:06.353Z,17.98
2023-03-20T04:07:32.850Z,17.33
2023-03-20T04:09:59.327Z,18.73
2023-03-20T04:12:35.282Z,18.73
2023-03-20T04:15:03.601Z,18.77
2023-03-20T04:17:31.228Z,19.27
2023-03-20T04:19:58.271Z,19.38
2023-03-20T04:22:24.878Z,18.75
2023-03-20T04:24:52.599Z,18.45
2023-03-20T04:27:19.864Z,18.25
2023-03-20T04:29:46.664Z,19.50
2023-03-20T04:32:13.329Z,17.42
2023-03-20T04:34:39.868Z,19.60
2023-03-20T04:37:08.290Z,18.65
2023-03-20T04:39:36.750Z,18.10
2023-03-20T04:42:06.042Z,18.08
2023-03-20T04:44:32.653Z,17.60
2023-03-20T04:46:59.113Z,18.70
2023-03-20T04:49:25.781Z,19.77
2023-03-20T04:51:53.167Z,19.20
2023-03-20T04:54:19.674Z,19.92
2023-03-20T04:56:46.233Z,18.88
2023-03-20T04:59:12.864Z,19.40
2023-03-20T05:01:39.486Z,18.55
2023-03-20T05:04:06.518Z,18.65
2023-03-20T05:06:33.798Z,18.60
2023-03-20T05:09:00.948Z,17.77
2023-03-20T05:11:28.743Z,19.17
2023-03-20T05:13:55.677Z,18.90
2023-03-20T05:16:22.197Z,19.17
2023-03-20T05:18:48.816Z,18.90
2023-03-20T05:21:15.848Z,18.33
2023-03-20T05:23:42.317Z,18.77
2023-03-20T05:26:08.853Z,19.02
2023-03-20T05:28:35.394Z,18.17
2023-03-20T05:31:02.015Z,17.20
2023-03-20T05:33:28.665Z,19.27
2023-03-20T05:35:55.369Z,19.15
2023-03-20T05:38:25.625Z,18.77
2023-03-20T05:41:00.336Z,18.45
2023-03-20T05:43:29.031Z,18.52
2023-03-20T05:45:56.866Z,21.70
2023-03-20T05:48:23.940Z,19.08
2023-03-20T05:50:50.882Z,18.40
2023-03-20T05:53:17.457Z,18.17
2023-03-20T05:55:44.754Z,18.33
2023-03-20T05:58:12.196Z,16.67
2023-03-20T06:00:39.840Z,16.98
2023-03-20T06:03:09.546Z,19.25
2023-03-20T06:05:36.645Z,18.13
2023-03-20T06:08:04.618Z,18.75
2023-03-20T06:10:31.542Z,17.67
2023-03-20T06:13:01.068Z,16.88
2023-03-20T06:15:28.799Z,17.80
2023-03-20T06:17:56.388Z,18.52
2023-03-20T06:20:24.242Z,17.70
2023-03-20T06:22:51.239Z,18.30
2023-03-20T06:25:18.996Z,19.55
2023-03-20T06:27:49.067Z,19.17
2023-03-20T06:30:16.425Z,19.92
2023-03-20T06:32:43.772Z,20.98
2023-03-20T06:35:11.978Z,21.50
2023-03-20T06:37:38.672Z,20.52
2023-03-20T06:40:06.845Z,19.70
2023-03-20T06:42:33.501Z,20.27
2023-03-20T06:45:00.147Z,21.27
2023-03-20T06:47:27.055Z,19.67
2023-03-20T06:49:53.568Z,73.35
2023-03-20T06:52:25.062Z,23.83
2023-03-20T06:54:52.086Z,31.05
2023-03-20T06:57:18.620Z,21.20
2023-03-20T06:59:45.475Z,21.30
2023-03-20T07:02:12.072Z,21.48
2023-03-20T07:04:39.292Z,20.25
2023-03-20T07:07:05.829Z,20.92
2023-03-20T07:09:33.070Z,20.58
2023-03-20T07:12:00.160Z,20.10
2023-03-20T07:14:26.690Z,20.83
2023-03-20T07:16:53.282Z,22.02
2023-03-20T07:19:20.319Z,21.42
2023-03-20T07:21:47.081Z,19.63
2023-03-20T07:24:14.372Z,21.42
2023-03-20T07:26:41.232Z,21.33
2023-03-20T07:29:08.001Z,21.25
2023-03-20T07:31:34.658Z,21.67
2023-03-20T07:34:01.234Z,21.45
2023-03-20T07:36:27.775Z,20.38
2023-03-20T07:38:54.253Z,20.00
2023-03-20T07:41:20.846Z,20.48
2023-03-20T07:43:47.301Z,21.95
2023-03-20T07:46:13.919Z,20.58
2023-03-20T07:48:41.164Z,19.77
2023-03-20T07:51:08.060Z,20.17
2023-03-20T07:53:34.573Z,18.60
2023-03-20T07:56:01.135Z,17.92
2023-03-20T07:58:27.628Z,17.77
2023-03-20T08:00:56.482Z,16.92
2023-03-20T08:03:23.054Z,18.05
2023-03-20T08:05:49.935Z,16.38
2023-03-20T08:08:16.606Z,15.05
2023-03-20T08:10:43.467Z,15.35
2023-03-20T08:13:10.003Z,15.60
2023-03-20T08:15:36.738Z,14.55
2023-03-20T08:18:03.825Z,14.80
2023-03-20T08:20:31.613Z,13.57
2023-03-20T08:22:58.122Z,13.80
2023-03-20T08:25:24.584Z,12.52
2023-03-20T08:27:51.145Z,12.55
2023-03-20T08:30:17.782Z,12.65
2023-03-20T08:32:44.352Z,13.65
2023-03-20T08:35:25.770Z,12.85
2023-03-20T08:37:56.545Z,12.63
2023-03-20T08:40:23.439Z,11.77
2023-03-20T08:42:49.980Z,17.63
2023-03-20T08:45:17.043Z,14.73
2023-03-20T08:47:43.702Z,11.38
2023-03-20T08:50:11.935Z,11.82
2023-03-20T08:52:38.460Z,10.70
2023-03-20T08:55:06.737Z,10.15
2023-03-20T08:57:33.184Z,10.35
2023-03-20T08:59:59.679Z,10.57
2023-03-20T09:02:26.456Z,10.45
2023-03-20T09:04:52.999Z,12.82
2023-03-20T09:07:19.522Z,9.65
2023-03-20T09:09:45.989Z,10.15
2023-03-20T09:12:12.520Z,9.95
2023-03-20T09:14:39.408Z,9.32
2023-03-20T09:17:05.937Z,10.18
2023-03-20T09:19:32.465Z,10.70
2023-03-20T09:21:59.809Z,12.48
2023-03-20T09:24:26.689Z,13.98
2023-03-20T09:26:53.194Z,10.18
2023-03-20T09:29:19.683Z,9.98
2023-03-20T09:31:46.288Z,9.63
2023-03-20T09:34:12.906Z,12.05
2023-03-20T09:36:39.383Z,11.25
2023-03-20T09:39:05.918Z,9.93
2023-03-20T09:41:45.861Z,13.77
2023-03-20T09:45:08.372Z,30.48
2023-03-20T09:47:59.709Z,10.57
2023-03-20T09:50:39.891Z,9.48
2023-03-20T09:53:33.330Z,15.80
2023-03-20T09:56:00.673Z,9.18
2023-03-20T09:58:34.109Z,26.73
2023-03-20T10:01:06.657Z,8.27
2023-03-20T10:03:47.701Z,8.40
2023-03-20T10:06:17.861Z,7.68
2023-03-20T10:08:46.447Z,6.40
2023-03-20T10:11:23.560Z,13.10
2023-03-20T10:14:22.429Z,6.25
2023-03-20T10:17:11.849Z,6.13
2023-03-20T10:19:53.499Z,31.35
2023-03-20T10:22:32.412Z,16.77
2023-03-20T10:25:15.675Z,6.68
2023-03-20T10:28:01.572Z,5.85
2023-03-20T10:30:51.307Z,5.28
2023-03-20T10:33:40.429Z,26.58
2023-03-20T10:36:38.965Z,6.10
2023-03-20T10:39:31.586Z,8.60
2023-03-20T10:42:03.802Z,8.93
2023-03-20T10:44:46.262Z,5.55
2023-03-20T10:47:19.051Z,4.55
2023-03-20T10:50:09.074Z,4.28
2023-03-20T10:52:41.732Z,4.30
2023-03-20T10:55:16.662Z,4.80
2023-03-20T10:57:53.238Z,4.75
2023-03-20T11:02:50.910Z,14.88
2023-03-20T11:05:32.564Z,8.68
2023-03-20T11:08:12.397Z,5.20
2023-03-20T11:10:42.351Z,4.13
2023-03-20T11:13:43.850Z,4.07
2023-03-20T11:16:20.323Z,5.40
2023-03-20T11:21:22.667Z,4.88
2023-03-20T11:23:50.842Z,4.00
2023-03-20T11:26:34.674Z,3.80
2023-03-20T11:29:01.682Z,3.75
2023-03-20T11:31:40.664Z,3.67
2023-03-20T11:34:07.400Z,3.83
2023-03-20T11:36:36.680Z,4.03
2023-03-20T11:39:16.122Z,4.25
2023-03-20T11:41:50.195Z,4.90
2023-03-20T11:44:36.648Z,4.10
2023-03-20T11:47:12.144Z,4.38
2023-03-20T11:49:57.523Z,4.10
2023-03-20T11:52:32.802Z,4.20
2023-03-20T11:55:04.269Z,4.15
2023-03-20T11:57:42.708Z,4.68
2023-03-20T12:00:11.930Z,4.15
2023-03-20T12:02:41.339Z,4.65
2023-03-20T12:05:31.470Z,3.70
2023-03-20T12:08:24.298Z,3.50
2023-03-20T12:10:59.417Z,4.25
2023-03-20T12:13:37.721Z,4.00
2023-03-20T12:16:16.117Z,4.15
2023-03-20T12:18:51.320Z,4.40
2023-03-20T12:21:36.468Z,4.03
2023-03-20T12:24:31.202Z,4.25
2023-03-20T12:27:37.833Z,4.50
2023-03-20T12:30:20.884Z,4.35
2023-03-20T12:33:20.503Z,4.72
2023-03-20T12:35:52.221Z,4.90
2023-03-20T12:38:28.597Z,5.15
2023-03-20T12:41:10.510Z,4.60
2023-03-20T12:44:05.227Z,4.85
2023-03-20T12:46:41.914Z,4.80
2023-03-20T12:49:32.890Z,5.10
2023-03-20T12:52:35.424Z,4.55
2023-03-20T12:55:25.951Z,4.50
2023-03-20T12:58:24.493Z,4.60
2023-03-20T13:01:05.774Z,4.45
2023-03-20T13:03:49.590Z,4.45
2023-03-20T13:06:49.694Z,4.13
2023-03-20T13:09:51.979Z,4.60
2023-03-20T13:12:43.833Z,4.07
2023-03-20T13:16:01.711Z,4.30
2023-03-20T13:18:45.422Z,4.07
2023-03-20T13:21:24.516Z,3.97
2023-03-20T13:24:10.951Z,4.40
2023-03-20T13:26:58.453Z,4.55
2023-03-20T13:29:34.245Z,4.35
2023-03-20T13:32:24.302Z,4.18
2023-03-20T13:34:54.480Z,4.13
2023-03-20T13:38:11.026Z,4.00
2023-03-20T13:40:44.028Z,3.97
2023-03-20T13:43:27.901Z,4.30
2023-03-20T13:46:08.684Z,4.50
2023-03-20T13:48:43.514Z,4.63
2023-03-20T13:51:40.928Z,4.53
2023-03-20T13:54:16.684Z,5.00
2023-03-20T13:57:10.529Z,4.85
2023-03-20T13:59:58.276Z,4.40
2023-03-20T14:02:53.962Z,4.72
2023-03-20T14:05:23.874Z,4.70
2023-03-20T14:07:57.378Z,5.20
2023-03-20T14:10:24.143Z,4.60
2023-03-20T14:13:00.800Z,4.32
2023-03-20T14:15:34.672Z,4.50
2023-03-20T14:18:16.662Z,4.47
2023-03-20T14:20:53.230Z,4.50
2023-03-20T14:26:27.069Z,4.43
2023-03-20T14:29:02.535Z,4.97
2023-03-20T14:31:37.880Z,4.93
2023-03-20T14:34:12.216Z,4.60
2023-03-20T14:37:05.479Z,4.18
2023-03-20T14:40:04.088Z,4.30
2023-03-20T14:43:11.262Z,3.95
2023-03-20T14:45:47.359Z,4.40
2023-03-20T14:48:31.020Z,4.78
2023-03-20T14:51:18.426Z,4.25
2023-03-20T14:54:21.820Z,4.13
2023-03-20T14:56:50.590Z,4.07
2023-03-20T14:59:20.414Z,4.53
2023-03-20T15:01:58.685Z,4.13
2023-03-20T15:04:30.950Z,4.30
2023-03-20T15:07:01.942Z,4.53
2023-03-20T15:09:33.054Z,3.95
2023-03-20T15:12:04.197Z,4.10
2023-03-20T15:14:55.241Z,4.75
2023-03-20T15:17:39.749Z,4.40
2023-03-20T15:20:19.120Z,4.00
2023-03-20T15:23:01.235Z,4.20
2023-03-20T15:25:45.838Z,4.03
2023-03-20T15:28:19.518Z,3.30
2023-03-20T15:30:49.214Z,4.00
2023-03-20T15:33:28.567Z,4.20
2023-03-20T15:35:56.491Z,3.80
2023-03-20T15:38:32.988Z,3.40
2023-03-20T15:40:59.534Z,3.63
2023-03-20T15:43:27.840Z,3.15
2023-03-20T15:46:16.268Z,3.42
2023-03-20T15:48:49.185Z,3.20
2023-03-20T15:51:18.059Z,3.17
2023-03-20T15:53:48.352Z,3.20
2023-03-20T15:56:19.559Z,3.38
2023-03-20T15:58:52.504Z,3.20
2023-03-20T16:01:22.875Z,3.00
2023-03-20T16:03:51.284Z,3.10
2023-03-20T16:06:21.333Z,3.20
2023-03-20T16:09:06.290Z,3.40
2023-03-20T16:11:43.134Z,3.05
2023-03-20T16:14:23.300Z,3.40
2023-03-20T16:16:53.578Z,3.00
2023-03-20T16:19:20.557Z,3.38
2023-03-20T16:22:02.662Z,3.22
2023-03-20T16:24:39.340Z,3.20
2023-03-20T16:27:10.354Z,3.30
2023-03-20T16:29:42.637Z,3.10
2023-03-20T16:32:31.608Z,3.33
2023-03-20T16:35:01.365Z,3.60
2023-03-20T16:37:42.803Z,3.33
2023-03-20T16:40:34.628Z,3.47
2023-03-20T16:43:17.754Z,2.92
2023-03-20T16:45:51.292Z,3.53
2023-03-20T16:48:26.636Z,3.40
2023-03-20T16:51:17.751Z,3.50
2023-03-20T16:53:58.270Z,3.33
2023-03-20T16:56:38.238Z,3.13
2023-03-20T16:59:11.549Z,3.85
2023-03-20T17:01:44.789Z,4.13
2023-03-20T17:04:23.876Z,3.83
2023-03-20T17:06:59.173Z,3.60
2023-03-20T17:09:31.592Z,4.10
2023-03-20T17:12:14.512Z,3.33
2023-03-20T17:14:41.547Z,3.65
2023-03-20T17:17:20.942Z,3.78
2023-03-20T17:19:51.795Z,3.38
2023-03-20T17:22:25.344Z,3.30
2023-03-20T17:24:52.740Z,3.53
2023-03-20T17:27:20.629Z,3.45
2023-03-20T17:29:51.042Z,3.22
2023-03-20T17:32:23.885Z,3.10
2023-03-20T17:34:51.374Z,2.97
2023-03-20T17:37:27.149Z,2.90
2023-03-20T17:39:55.726Z,3.13
2023-03-20T17:42:30.545Z,21.85
2023-03-20T17:44:59.092Z,6.07
2023-03-20T17:47:27.914Z,5.30
2023-03-20T17:49:54.875Z,10.98
2023-03-20T17:52:28.201Z,8.82
2023-03-20T17:54:55.011Z,6.57
2023-03-20T17:57:31.573Z,6.85
2023-03-20T18:04:52.508Z,120.55
2023-03-20T18:07:20.093Z,70.10
2023-03-20T18:09:47.415Z,136.25
2023-03-20T18:12:17.452Z,363.25
2023-03-20T18:14:45.936Z,267.67
2023-03-20T18:17:15.243Z,110.72
2023-03-20T18:19:44.014Z,82.93
2023-03-20T18:22:11.252Z,38.28
2023-03-20T18:24:43.394Z,50.15
2023-03-20T18:27:11.663Z,66.45
2023-03-20T18:29:41.172Z,39.00
2023-03-20T18:32:07.685Z,51.50
2023-03-20T18:34:34.158Z,62.00
2023-03-20T18:37:01.303Z,32.03
2023-03-20T18:39:27.871Z,18.55
2023-03-20T18:41:54.540Z,9.68
2023-03-20T18:44:21.761Z,9.82
2023-03-20T18:46:49.434Z,8.02
2023-03-20T18:49:17.986Z,6.53
2023-03-20T18:51:45.688Z,8.02
2023-03-20T18:54:12.693Z,8.75
2023-03-20T18:56:39.243Z,9.60
2023-03-20T18:59:10.482Z,7.22
2023-03-20T19:01:37.129Z,7.43
2023-03-20T19:04:03.665Z,6.72
2023-03-20T19:06:32.031Z,6.22
2023-03-20T19:08:58.879Z,6.60
2023-03-20T19:11:25.554Z,6.55
2023-03-20T19:13:53.841Z,6.05
2023-03-20T19:16:25.805Z,7.10
2023-03-20T19:18:58.864Z,6.10
2023-03-20T19:21:28.921Z,6.20
2023-03-20T19:24:05.948Z,6.05
2023-03-20T19:26:35.747Z,7.00
2023-03-20T19:29:10.041Z,21.48
2023-03-20T19:31:36.896Z,9.90
2023-03-20T19:34:03.414Z,6.30
2023-03-20T19:36:36.791Z,9.85
2023-03-20T19:39:07.373Z,28.13
2023-03-20T19:41:34.258Z,23.05
2023-03-20T19:44:01.510Z,8.35
2023-03-20T19:46:44.032Z,45.10
2023-03-20T19:49:30.206Z,27.33
2023-03-20T19:51:57.443Z,89.95
2023-03-20T19:54:24.027Z,162.27
2023-03-20T19:56:50.588Z,47.33
2023-03-20T19:59:17.371Z,33.65
2023-03-20T20:01:45.580Z,27.27
2023-03-20T20:04:12.377Z,15.35
2023-03-20T20:06:39.904Z,5.75
2023-03-20T20:09:07.018Z,4.22
2023-03-20T20:11:33.546Z,4.25
2023-03-20T20:14:09.349Z,4.60
2023-03-20T20:19:06.284Z,4.43
2023-03-20T20:24:19.789Z,4.68
2023-03-20T20:27:11.646Z,5.97
2023-03-20T20:29:41.908Z,5.63
2023-03-20T20:32:08.618Z,6.65
2023-03-20T20:40:14.238Z,6.97
2023-03-20T20:42:42.441Z,7.15
2023-03-20T20:45:14.556Z,8.13
2023-03-20T20:47:44.797Z,7.70
2023-03-20T20:50:15.285Z,7.28
2023-03-20T20:52:42.860Z,6.55
2023-03-20T20:55:26.567Z,6.90
2023-03-20T20:57:55.620Z,6.10
2023-03-20T21:00:41.005Z,6.30
2023-03-20T21:03:12.564Z,5.22
2023-03-20T21:05:42.762Z,4.97
2023-03-20T21:08:11.220Z,4.55
2023-03-20T21:10:37.726Z,4.88
2023-03-20T21:13:04.203Z,5.78
2023-03-20T21:15:30.706Z,4.82
2023-03-20T21:18:01.573Z,4.53
2023-03-20T21:20:30.179Z,6.75
2023-03-20T21:22:56.753Z,5.05
2023-03-20T21:25:36.388Z,5.05
2023-03-20T21:28:05.396Z,6.15
2023-03-20T21:30:33.523Z,6.05
2023-03-20T21:33:00.503Z,5.30
2023-03-20T21:35:27.475Z,5.10
2023-03-20T21:40:41.820Z,5.35
2023-03-20T21:43:09.315Z,5.07
2023-03-20T21:49:15.768Z,4.68
2023-03-20T21:52:14.501Z,4.57
2023-03-20T21:54:48.673Z,4.15
2023-03-20T21:57:18.912Z,6.50
2023-03-20T22:00:20.296Z,7.53
2023-03-20T22:02:23.673Z,6.50
2023-03-20T22:05:50.411Z,10.20
2023-03-20T22:08:19.527Z,9.35
2023-03-20T22:11:20.291Z,7.03
2023-03-20T22:14:09.137Z,7.03
2023-03-20T22:16:57.579Z,6.10
2023-03-20T22:19:41.551Z,5.75
2023-03-20T22:30:41.948Z,6.88
2023-03-20T22:33:46.957Z,5.35
2023-03-20T22:36:19.779Z,5.25
2023-03-20T22:39:11.731Z,5.53
2023-03-20T22:46:45.672Z,5.10
2023-03-20T22:49:13.277Z,5.10
2023-03-20T22:51:52.106Z,4.53
2023-03-20T22:54:24.444Z,4.40
2023-03-20T22:56:50.921Z,4.90
2023-03-20T22:59:17.387Z,4.20
2023-03-20T23:01:43.871Z,4.60
2023-03-20T23:04:10.373Z,4.20
2023-03-20T23:06:36.880Z,4.55
2023-03-20T23:09:12.843Z,4.30
2023-03-20T23:11:41.769Z,5.20
2023-03-20T23:14:18.163Z,4.65
2023-03-20T23:16:49.653Z,3.90
2023-03-20T23:19:16.673Z,8.63
2023-03-20T23:21:43.269Z,6.53
2023-03-20T23:24:09.896Z,9.55
2023-03-20T23:26:36.473Z,7.40
2023-03-20T23:29:03.521Z,21.58
2023-03-20T23:31:30.262Z,13.85
2023-03-20T23:33:58.108Z,8.45
2023-03-20T23:36:36.461Z,4.93
2023-03-20T23:39:07.002Z,10.65
2023-03-20T23:42:03.975Z,44.78
2023-03-20T23:46:48.352Z,16.48
2023-03-20T23:49:16.346Z,12.88
2023-03-20T23:51:42.891Z,4.32
2023-03-20T23:54:09.372Z,4.82
2023-03-20T23:56:35.861Z,5.40
2023-03-20T23:59:14.704Z,4.22
